Time;durP1;ratioP1;P1;durP2;ratioP2;P2;SDS_P1;SDS_P2;PMS_P1;PMS_P2;Temp;Humidity;BMP_temperature;BMP_pressure;BME280_temperature;BME280_humidity;BME280_pressure;Samples;Min_cycle;Max_cycle;Signal;HPM_P1;HPM_P2
2022/09/02 00:00:47;;;;;;;0.80;0.50;;;14.50;76.90;;;;;;4974131;28;20046;-76
2022/09/02 00:03:13;;;;;;;0.85;0.50;;;14.50;77.00;;;;;;4979322;28;20042;-76
2022/09/02 00:05:39;;;;;;;1.13;0.80;;;14.50;77.00;;;;;;4976771;28;20404;-76
2022/09/02 00:08:05;;;;;;;0.80;0.60;;;14.40;76.90;;;;;;4973709;28;20136;-76
2022/09/02 00:10:35;;;;;;;0.88;0.60;;;14.40;76.90;;;;;;4954855;28;20435;-76
2022/09/02 00:13:00;;;;;;;1.20;0.65;;;14.40;77.00;;;;;;4968679;28;20113;-76
2022/09/02 00:15:26;;;;;;;0.70;0.70;;;14.40;77.30;;;;;;4990629;28;20153;-76
2022/09/02 00:17:53;;;;;;;0.77;0.55;;;14.30;77.20;;;;;;4993960;28;20038;-76
2022/09/02 00:20:18;;;;;;;0.85;0.52;;;14.40;77.30;;;;;;4993357;28;20124;-76
2022/09/02 00:22:44;;;;;;;1.10;0.80;;;14.30;77.20;;;;;;4975713;28;20121;-76
2022/09/02 00:25:11;;;;;;;1.80;0.70;;;14.30;77.60;;;;;;4957709;28;20042;-76
2022/09/02 00:27:37;;;;;;;0.60;0.57;;;14.30;77.60;;;;;;4984622;28;20050;-76
2022/09/02 00:30:04;;;;;;;1.02;0.68;;;14.30;77.70;;;;;;4978365;28;20520;-76
2022/09/02 00:32:30;;;;;;;0.70;0.70;;;14.30;77.80;;;;;;4977746;28;20046;-76
2022/09/02 00:34:56;;;;;;;0.88;0.60;;;14.30;77.80;;;;;;4968795;28;20046;-76
2022/09/02 00:37:23;;;;;;;1.33;0.77;;;14.20;77.80;;;;;;4981512;28;20403;-76
2022/09/02 00:39:49;;;;;;;0.85;0.55;;;14.20;78.00;;;;;;4978130;28;20085;-76
2022/09/02 00:42:15;;;;;;;1.23;0.80;;;14.20;78.10;;;;;;4978275;28;20077;-76
2022/09/02 00:44:40;;;;;;;0.70;0.70;;;14.20;78.10;;;;;;4980808;28;20120;-76
2022/09/02 00:47:07;;;;;;;0.75;0.60;;;14.20;78.20;;;;;;4985083;28;20151;-76
2022/09/02 00:49:37;;;;;;;0.70;0.60;;;14.20;78.50;;;;;;4978011;28;20074;-76
2022/09/02 00:52:04;;;;;;;2.17;0.70;;;14.00;78.50;;;;;;4959670;28;20049;-76
2022/09/02 00:54:33;;;;;;;1.05;0.80;;;14.10;78.70;;;;;;4975509;28;20042;-76
2022/09/02 00:57:02;;;;;;;2.38;0.80;;;14.10;78.90;;;;;;4985195;28;20038;-76
2022/09/02 00:59:47;;;;;;;0.60;0.60;;;14.00;78.90;;;;;;4977786;28;20043;-76
2022/09/02 01:02:14;;;;;;;1.10;0.70;;;14.00;79.20;;;;;;4942588;28;20053;-76
2022/09/02 01:04:41;;;;;;;0.70;0.70;;;14.00;79.40;;;;;;4964399;28;20045;-76
2022/09/02 01:07:08;;;;;;;0.70;0.70;;;13.90;79.50;;;;;;4985852;28;20097;-76
2022/09/02 01:09:35;;;;;;;0.80;0.80;;;13.90;79.60;;;;;;4977485;28;20121;-76
2022/09/02 01:12:02;;;;;;;0.60;0.60;;;13.90;79.80;;;;;;4960416;28;20034;-76
2022/09/02 01:14:28;;;;;;;0.93;0.70;;;13.90;80.00;;;;;;4960414;28;20034;-76
2022/09/02 01:16:58;;;;;;;1.17;0.70;;;13.80;80.00;;;;;;4976650;28;20125;-76
2022/09/02 01:19:33;;;;;;;1.30;0.80;;;13.80;80.40;;;;;;4961673;28;20519;-76
2022/09/02 01:21:59;;;;;;;0.88;0.75;;;13.80;80.50;;;;;;4973159;28;20136;-76
2022/09/02 01:24:29;;;;;;;0.73;0.73;;;13.80;80.80;;;;;;4973004;28;20039;-76
2022/09/02 01:26:57;;;;;;;0.75;0.70;;;13.80;80.90;;;;;;4978575;28;20120;-75
2022/09/02 01:29:24;;;;;;;0.98;0.80;;;13.70;80.90;;;;;;4977314;28;20515;-76
2022/09/02 01:31:50;;;;;;;1.30;0.70;;;13.70;81.10;;;;;;4977284;28;20523;-76
2022/09/02 01:34:16;;;;;;;0.73;0.73;;;13.70;81.40;;;;;;4967613;28;20116;-76
2022/09/02 01:36:42;;;;;;;0.98;0.70;;;13.70;81.50;;;;;;4962404;28;20047;-76
2022/09/02 01:39:10;;;;;;;1.15;0.80;;;13.70;81.70;;;;;;4960622;28;20038;-76
2022/09/02 01:41:36;;;;;;;0.60;0.60;;;13.60;81.80;;;;;;4977394;28;20046;-76
2022/09/02 01:44:04;;;;;;;0.88;0.70;;;13.70;82.10;;;;;;4981200;28;20508;-76
2022/09/02 01:46:30;;;;;;;0.60;0.60;;;13.60;82.30;;;;;;4984547;28;20050;-76
2022/09/02 01:48:56;;;;;;;1.08;0.80;;;13.60;82.30;;;;;;4976327;28;20118;-76
2022/09/02 01:51:21;;;;;;;0.70;0.70;;;13.60;82.50;;;;;;4960959;28;20054;-76
2022/09/02 01:53:47;;;;;;;0.80;0.55;;;13.60;82.70;;;;;;4976398;28;20116;-76
2022/09/02 01:56:13;;;;;;;0.73;0.70;;;13.60;82.80;;;;;;4984466;28;20096;-76
2022/09/02 01:58:40;;;;;;;1.05;0.80;;;13.60;82.80;;;;;;4976063;28;20030;-76
2022/09/02 02:01:06;;;;;;;0.95;0.77;;;13.60;83.30;;;;;;4960965;28;20441;-76
2022/09/02 02:03:34;;;;;;;2.00;0.80;;;13.50;83.30;;;;;;4975293;28;20026;-76
2022/09/02 02:06:00;;;;;;;1.08;0.75;;;13.50;83.50;;;;;;4969508;28;20124;-76
2022/09/02 02:08:26;;;;;;;0.90;0.80;;;13.60;83.80;;;;;;4981985;28;20038;-75
2022/09/02 02:10:52;;;;;;;0.95;0.80;;;13.50;84.00;;;;;;4959578;28;20085;-75
2022/09/02 02:13:17;;;;;;;1.02;0.80;;;13.50;84.30;;;;;;4983088;28;20113;-76
2022/09/02 02:15:44;;;;;;;1.20;0.80;;;13.50;84.50;;;;;;4982244;28;21715;-76
2022/09/02 02:18:10;;;;;;;0.80;0.80;;;13.50;84.70;;;;;;4997384;28;20125;-76
2022/09/02 02:20:37;;;;;;;0.75;0.70;;;13.50;85.00;;;;;;4976891;28;20046;-75
2022/09/02 02:23:04;;;;;;;1.20;0.80;;;13.50;85.20;;;;;;4979907;28;20111;-75
2022/09/02 02:25:30;;;;;;;0.73;0.73;;;13.40;85.20;;;;;;4995643;28;20119;-75
2022/09/02 02:27:56;;;;;;;1.10;1.00;;;13.40;85.60;;;;;;4983176;28;20042;-75
2022/09/02 02:30:22;;;;;;;0.80;0.80;;;13.40;85.60;;;;;;4955184;28;20045;-75
2022/09/02 02:32:48;;;;;;;1.45;1.00;;;13.40;86.10;;;;;;4956933;28;20070;-75
2022/09/02 02:35:17;;;;;;;0.90;0.77;;;13.40;86.40;;;;;;4956802;28;20035;-76
2022/09/02 02:37:44;;;;;;;0.73;0.73;;;13.40;86.70;;;;;;4965752;28;20034;-76
2022/09/02 02:40:11;;;;;;;1.35;1.00;;;13.40;86.60;;;;;;4975537;28;20096;-76
2022/09/02 02:42:38;;;;;;;0.70;0.70;;;13.40;86.90;;;;;;4975794;28;20097;-76
2022/09/02 02:45:08;;;;;;;1.08;0.80;;;13.30;87.10;;;;;;4975969;28;20117;-76
2022/09/02 02:47:37;;;;;;;0.88;0.80;;;13.30;87.50;;;;;;4981776;28;20053;-76
2022/09/02 02:50:05;;;;;;;1.05;0.70;;;13.30;87.70;;;;;;4975416;28;20038;-76
2022/09/02 02:52:30;;;;;;;1.30;0.90;;;13.30;88.10;;;;;;4975910;28;20065;-76
2022/09/02 02:54:56;;;;;;;1.48;0.70;;;13.30;88.30;;;;;;4959734;28;20038;-75
2022/09/02 02:57:21;;;;;;;1.10;1.00;;;13.30;89.30;;;;;;4957230;28;20076;-75
2022/09/02 02:59:47;;;;;;;0.85;0.82;;;13.30;88.90;;;;;;4975177;28;20042;-75
2022/09/02 03:02:12;;;;;;;1.15;0.95;;;13.30;88.70;;;;;;4975658;28;20477;-76
2022/09/02 03:04:38;;;;;;;0.80;0.80;;;13.40;89.10;;;;;;4975632;28;20042;-76
2022/09/02 03:07:06;;;;;;;0.90;0.90;;;13.40;89.10;;;;;;4974744;28;20034;-76
2022/09/02 03:09:32;;;;;;;1.27;0.80;;;13.30;89.10;;;;;;4975536;28;20680;-75
2022/09/02 03:11:57;;;;;;;0.98;0.88;;;13.30;89.30;;;;;;4975092;28;20038;-76
2022/09/02 03:14:23;;;;;;;1.10;0.80;;;13.30;89.40;;;;;;4975839;28;20424;-76
2022/09/02 03:16:49;;;;;;;1.00;0.88;;;13.30;89.70;;;;;;4972269;28;20178;-75
2022/09/02 03:19:14;;;;;;;1.15;1.00;;;13.30;89.90;;;;;;4975133;28;20408;-75
2022/09/02 03:21:41;;;;;;;1.48;0.80;;;13.30;90.00;;;;;;4959565;28;20034;-75
2022/09/02 03:24:09;;;;;;;0.80;0.80;;;13.30;90.10;;;;;;4959317;28;20042;-76
2022/09/02 03:26:35;;;;;;;0.88;0.80;;;13.30;90.20;;;;;;4973194;28;20066;-76
2022/09/02 03:29:00;;;;;;;2.15;1.10;;;13.30;90.20;;;;;;4979002;28;20069;-76
2022/09/02 03:31:27;;;;;;;1.33;0.88;;;13.30;90.30;;;;;;4975154;28;20121;-76
2022/09/02 03:33:53;;;;;;;1.25;1.15;;;13.30;90.50;;;;;;4958790;28;20034;-76
2022/09/02 03:36:28;;;;;;;1.00;0.90;;;13.20;90.50;;;;;;4971462;28;20042;-76
2022/09/02 03:38:54;;;;;;;1.02;0.85;;;13.20;90.70;;;;;;4958584;28;20034;-76
2022/09/02 03:41:20;;;;;;;1.00;0.90;;;13.20;90.80;;;;;;4974916;28;20097;-76
2022/09/02 03:43:46;;;;;;;1.42;1.00;;;13.20;90.80;;;;;;4975051;28;20039;-76
2022/09/02 03:46:12;;;;;;;1.10;0.95;;;13.20;91.10;;;;;;4974989;28;20069;-76
2022/09/02 03:48:39;;;;;;;2.08;1.08;;;13.30;91.20;;;;;;4973713;28;20489;-75
2022/09/02 03:51:05;;;;;;;2.15;1.05;;;13.20;91.30;;;;;;4975219;28;20101;-76
2022/09/02 03:53:31;;;;;;;1.42;1.00;;;13.20;91.30;;;;;;4974721;28;20043;-76
2022/09/02 03:55:57;;;;;;;0.98;0.98;;;13.20;91.50;;;;;;4974742;28;20041;-76
2022/09/02 03:58:23;;;;;;;0.80;0.80;;;13.20;91.50;;;;;;4957885;28;20053;-76
2022/09/02 04:00:51;;;;;;;1.15;1.05;;;13.10;91.70;;;;;;4960213;28;20042;-76
2022/09/02 04:03:17;;;;;;;1.05;0.95;;;13.10;91.80;;;;;;4978658;28;20048;-76
2022/09/02 04:05:46;;;;;;;1.15;0.90;;;13.10;91.90;;;;;;4979160;28;20489;-76
2022/09/02 04:08:11;;;;;;;1.13;1.10;;;13.10;92.10;;;;;;4978294;28;20042;-76
2022/09/02 04:10:37;;;;;;;1.00;0.90;;;13.10;92.10;;;;;;4962230;28;20039;-76
2022/09/02 04:13:02;;;;;;;1.55;1.10;;;13.00;92.20;;;;;;4978726;28;20039;-75
2022/09/02 04:15:28;;;;;;;1.30;1.10;;;13.00;92.40;;;;;;4978702;28;20049;-76
2022/09/02 04:17:55;;;;;;;1.17;1.08;;;13.00;92.40;;;;;;4968302;28;20030;-75
2022/09/02 04:20:21;;;;;;;1.38;1.20;;;13.00;92.90;;;;;;4978594;28;20193;-76
2022/09/02 04:22:47;;;;;;;2.05;1.25;;;12.90;92.90;;;;;;4962521;28;20543;-76
2022/09/02 04:25:13;;;;;;;1.00;1.00;;;12.90;93.00;;;;;;4973682;28;20035;-75
2022/09/02 04:27:39;;;;;;;1.52;1.30;;;12.90;93.40;;;;;;4977577;28;20100;-75
2022/09/02 04:30:06;;;;;;;1.20;1.10;;;12.80;93.50;;;;;;4981362;28;20125;-76
2022/09/02 04:32:32;;;;;;;1.75;1.42;;;12.80;93.60;;;;;;4978390;28;20117;-76
2022/09/02 04:34:58;;;;;;;1.30;1.20;;;12.80;93.80;;;;;;4978136;28;20457;-75
2022/09/02 04:37:24;;;;;;;1.88;1.17;;;12.80;94.20;;;;;;4968108;28;20093;-76
2022/09/02 04:39:49;;;;;;;1.80;1.35;;;12.70;94.30;;;;;;4977928;28;20042;-75
2022/09/02 04:42:15;;;;;;;1.27;1.17;;;12.70;94.80;;;;;;4978179;28;20042;-75
2022/09/02 04:44:40;;;;;;;1.30;1.20;;;12.70;94.80;;;;;;4979335;28;20034;-75
2022/09/02 04:47:06;;;;;;;2.28;1.30;;;12.70;94.90;;;;;;4974365;28;20038;-75
2022/09/02 04:49:32;;;;;;;1.77;1.42;;;12.70;95.00;;;;;;4977302;28;20052;-75
2022/09/02 04:51:58;;;;;;;2.00;1.30;;;12.70;95.50;;;;;;4978294;28;20527;-75
2022/09/02 04:54:24;;;;;;;1.35;1.20;;;12.70;95.40;;;;;;5000184;28;20049;-75
2022/09/02 04:56:50;;;;;;;1.52;1.42;;;12.60;95.40;;;;;;4976298;28;20038;-75
2022/09/02 04:59:15;;;;;;;1.60;1.30;;;12.70;95.90;;;;;;4976734;28;20417;-75
2022/09/02 05:01:41;;;;;;;2.33;1.40;;;12.60;95.70;;;;;;4977471;28;20077;-75
2022/09/02 05:04:08;;;;;;;1.77;1.30;;;12.60;95.70;;;;;;4976985;28;20096;-75
2022/09/02 05:06:35;;;;;;;2.13;1.23;;;12.60;95.80;;;;;;4976652;28;20052;-75
2022/09/02 05:09:02;;;;;;;2.05;1.20;;;12.60;95.70;;;;;;4977461;28;20133;-75
2022/09/02 05:11:30;;;;;;;1.52;1.30;;;12.60;95.80;;;;;;4961116;28;20034;-75
2022/09/02 05:13:59;;;;;;;1.45;1.35;;;12.60;96.00;;;;;;4985292;28;20041;-75
2022/09/02 05:16:28;;;;;;;1.40;1.30;;;12.60;96.10;;;;;;4976198;28;20690;-75
2022/09/02 05:18:55;;;;;;;1.45;1.35;;;12.60;96.40;;;;;;4985519;28;20030;-75
2022/09/02 05:21:22;;;;;;;1.77;1.40;;;12.60;96.60;;;;;;4977629;28;20050;-75
2022/09/02 05:23:49;;;;;;;2.17;1.35;;;12.60;96.40;;;;;;4975883;28;20039;-76
2022/09/02 05:26:15;;;;;;;1.70;1.60;;;12.60;97.00;;;;;;4976873;28;20038;-76
2022/09/02 05:28:42;;;;;;;1.58;1.40;;;12.70;97.00;;;;;;4976914;28;20057;-75
2022/09/02 05:31:18;;;;;;;1.88;1.40;;;12.60;96.80;;;;;;4976884;28;20039;-75
2022/09/02 05:33:44;;;;;;;1.55;1.45;;;12.70;97.50;;;;;;4978884;28;20072;-75
2022/09/02 05:36:13;;;;;;;1.40;1.30;;;12.70;97.10;;;;;;4996840;28;20052;-75
2022/09/02 05:38:40;;;;;;;1.58;1.45;;;12.70;97.20;;;;;;4976410;28;20045;-75
2022/09/02 05:41:08;;;;;;;1.40;1.30;;;12.80;97.20;;;;;;4977193;28;20046;-75
2022/09/02 05:43:35;;;;;;;2.40;1.60;;;12.80;97.30;;;;;;4960781;28;20513;-75
2022/09/02 05:46:10;;;;;;;1.50;1.40;;;12.80;97.30;;;;;;4980649;28;20044;-75
2022/09/02 05:51:22;;;;;;;1.42;1.30;;;12.90;97.20;;;;;;4976544;28;20109;-75
2022/09/02 05:53:52;;;;;;;1.90;1.40;;;12.90;97.30;;;;;;4974522;28;20489;-75
2022/09/02 05:56:18;;;;;;;1.73;1.30;;;12.90;97.40;;;;;;4976539;28;20061;-76
2022/09/02 05:58:44;;;;;;;3.30;1.60;;;13.00;97.70;;;;;;4975581;28;20042;-75
2022/09/02 06:01:12;;;;;;;1.50;1.40;;;13.00;97.50;;;;;;4966192;28;20097;-75
2022/09/02 06:03:37;;;;;;;1.92;1.50;;;13.00;97.70;;;;;;4959849;28;20037;-75
2022/09/02 06:06:04;;;;;;;1.92;1.35;;;13.10;97.70;;;;;;4996084;28;20100;-76
2022/09/02 06:08:31;;;;;;;2.63;1.40;;;13.10;97.60;;;;;;4978128;28;20100;-76
2022/09/02 06:10:57;;;;;;;1.65;1.55;;;13.20;97.80;;;;;;4975973;28;20195;-75
2022/09/02 06:13:22;;;;;;;1.40;1.30;;;13.20;97.80;;;;;;4960431;28;20585;-75
2022/09/02 06:15:49;;;;;;;1.40;1.30;;;13.20;97.90;;;;;;4976540;28;20035;-75
2022/09/02 06:18:16;;;;;;;1.60;1.50;;;13.30;97.70;;;;;;4974544;28;20069;-75
2022/09/02 06:20:44;;;;;;;1.70;1.33;;;13.30;97.60;;;;;;4975793;28;20124;-75
2022/09/02 06:23:10;;;;;;;1.70;1.60;;;13.40;97.40;;;;;;4975093;28;20038;-75
2022/09/02 06:25:37;;;;;;;1.70;1.50;;;13.50;97.40;;;;;;4975139;28;20049;-75
2022/09/02 06:28:04;;;;;;;1.88;1.38;;;13.60;97.40;;;;;;4972743;28;20042;-75
2022/09/02 06:30:30;;;;;;;2.00;1.50;;;13.60;97.50;;;;;;4955241;28;20053;-76
2022/09/02 06:32:56;;;;;;;2.17;1.50;;;13.80;97.20;;;;;;4975644;28;20156;-76
2022/09/02 06:35:21;;;;;;;1.85;1.70;;;13.80;97.00;;;;;;4970807;28;20424;-76
2022/09/02 06:37:48;;;;;;;1.67;1.42;;;13.90;96.80;;;;;;4956464;28;20122;-75
2022/09/02 06:40:13;;;;;;;1.67;1.50;;;14.10;96.50;;;;;;4968113;28;20069;-76
2022/09/02 06:42:39;;;;;;;1.50;1.40;;;14.10;96.30;;;;;;4975893;28;20073;-75
2022/09/02 06:45:06;;;;;;;2.25;1.45;;;14.20;96.00;;;;;;4975973;28;20108;-76
2022/09/02 06:47:32;;;;;;;1.40;1.30;;;14.30;95.80;;;;;;4972039;28;20043;-75
2022/09/02 06:49:58;;;;;;;2.58;1.60;;;14.40;95.60;;;;;;4972091;28;20117;-75
2022/09/02 06:52:24;;;;;;;1.45;1.35;;;14.50;95.20;;;;;;4971577;28;20506;-77
2022/09/02 06:54:50;;;;;;;1.63;1.48;;;14.60;95.00;;;;;;4975256;28;20038;-74
2022/09/02 06:57:16;;;;;;;1.50;1.40;;;14.80;94.70;;;;;;4974660;28;20049;-76
2022/09/02 06:59:42;;;;;;;1.73;1.63;;;14.90;94.10;;;;;;4979921;28;20450;-77
2022/09/02 07:02:08;;;;;;;1.98;1.70;;;14.90;93.70;;;;;;4975662;28;20046;-78
2022/09/02 07:07:18;;;;;;;1.58;1.48;;;15.10;93.30;;;;;;4973847;28;20496;-78
2022/09/02 07:09:43;;;;;;;1.48;1.38;;;15.30;93.10;;;;;;4974659;28;20050;-77
2022/09/02 07:12:10;;;;;;;2.00;1.80;;;15.30;92.50;;;;;;4975972;28;20504;-78
2022/09/02 07:14:42;;;;;;;1.60;1.50;;;15.50;92.60;;;;;;4959798;28;20085;-77
2022/09/02 07:17:09;;;;;;;2.20;1.63;;;15.50;92.30;;;;;;4959147;28;20042;-78
2022/09/02 07:19:35;;;;;;;1.95;1.55;;;15.70;92.30;;;;;;4987158;28;20321;-77
2022/09/02 07:22:05;;;;;;;2.13;1.60;;;15.80;92.10;;;;;;4965882;28;20488;-77
2022/09/02 07:24:31;;;;;;;2.00;1.70;;;16.00;91.50;;;;;;4975336;28;20038;-78
2022/09/02 07:26:57;;;;;;;1.67;1.50;;;16.20;91.00;;;;;;4975579;28;20041;-78
2022/09/02 07:29:23;;;;;;;1.95;1.70;;;16.30;90.70;;;;;;4982942;28;20078;-78
2022/09/02 07:31:49;;;;;;;1.70;1.60;;;16.40;90.10;;;;;;4994943;28;20113;-78
2022/09/02 07:34:15;;;;;;;2.22;1.30;;;16.50;90.30;;;;;;4995552;28;20049;-79
2022/09/02 07:36:41;;;;;;;1.50;1.40;;;16.60;90.20;;;;;;4993234;28;20047;-79
2022/09/02 07:39:09;;;;;;;1.55;1.35;;;16.80;90.40;;;;;;4988093;28;20121;-78
2022/09/02 07:41:36;;;;;;;1.88;1.40;;;16.90;88.80;;;;;;4992243;28;20121;-78
2022/09/02 07:44:03;;;;;;;1.55;1.30;;;17.00;86.10;;;;;;4979118;28;20084;-78
2022/09/02 07:46:30;;;;;;;2.10;1.33;;;17.00;86.40;;;;;;4992708;28;20088;-78
2022/09/02 07:48:58;;;;;;;2.22;1.40;;;17.00;86.40;;;;;;4983967;28;20038;-78
2022/09/02 07:51:25;;;;;;;1.85;1.52;;;17.00;85.30;;;;;;4974123;28;20125;-77
2022/09/02 07:53:50;;;;;;;2.55;1.48;;;17.00;85.20;;;;;;4963495;28;20042;-77
2022/09/02 07:56:16;;;;;;;1.88;1.40;;;17.20;84.80;;;;;;4999215;28;20516;-76
2022/09/02 07:58:44;;;;;;;1.17;1.08;;;17.20;84.40;;;;;;4954692;28;20494;-76
2022/09/02 08:01:11;;;;;;;1.48;1.20;;;17.30;82.80;;;;;;4956720;28;20519;-76
2022/09/02 08:03:40;;;;;;;2.63;1.20;;;17.40;82.70;;;;;;4973135;28;20046;-76
2022/09/02 08:06:07;;;;;;;1.42;1.33;;;17.50;82.30;;;;;;4958387;28;20086;-76
2022/09/02 08:08:33;;;;;;;2.72;1.30;;;17.60;81.90;;;;;;4976441;28;20038;-77
2022/09/02 08:10:59;;;;;;;1.85;1.10;;;17.70;82.30;;;;;;4982179;28;20069;-80
2022/09/02 08:13:25;;;;;;;1.40;1.00;;;17.80;82.60;;;;;;4956443;28;20038;-78
2022/09/02 08:15:51;;;;;;;1.48;1.10;;;17.90;82.60;;;;;;4974946;28;20037;-77
2022/09/02 08:18:17;;;;;;;4.05;1.30;;;18.00;82.40;;;;;;4977350;28;20353;-75
2022/09/02 08:20:43;;;;;;;1.45;1.20;;;18.20;82.30;;;;;;4955177;28;20046;-75
2022/09/02 08:23:09;;;;;;;1.85;1.23;;;18.30;81.70;;;;;;4973643;28;20038;-74
2022/09/02 08:25:35;;;;;;;1.83;1.20;;;18.40;81.00;;;;;;4973731;28;20456;-76
2022/09/02 08:28:01;;;;;;;1.65;1.05;;;18.50;79.90;;;;;;4956735;28;20101;-77
2022/09/02 08:30:27;;;;;;;1.40;1.30;;;18.70;79.50;;;;;;4974057;28;20038;-77
2022/09/02 08:32:52;;;;;;;2.40;1.00;;;18.90;79.30;;;;;;4955880;28;20031;-74
2022/09/02 08:35:19;;;;;;;1.10;0.93;;;19.10;78.00;;;;;;4980222;28;20112;-76
2022/09/02 08:37:45;;;;;;;2.70;1.33;;;19.50;77.70;;;;;;4967067;28;20034;-75
2022/09/02 08:40:19;;;;;;;1.10;0.90;;;20.10;76.10;;;;;;4956486;28;20042;-75
2022/09/02 08:42:53;;;;;;;1.38;1.00;;;20.80;76.30;;;;;;4970239;28;20066;-75
2022/09/02 08:45:36;;;;;;;1.63;0.80;;;21.50;75.80;;;;;;4973539;28;20093;-75
2022/09/02 08:48:27;;;;;;;2.38;1.00;;;22.30;75.00;;;;;;4987932;28;20057;-77
2022/09/02 08:50:57;;;;;;;1.98;1.10;;;23.10;70.50;;;;;;4975709;28;20064;-77
2022/09/02 08:53:35;;;;;;;1.20;1.00;;;23.40;69.00;;;;;;4981591;28;20124;-77
2022/09/02 08:56:04;;;;;;;1.73;1.20;;;23.70;65.10;;;;;;4969291;28;20125;-78
2022/09/02 08:58:39;;;;;;;0.90;0.73;;;24.00;66.30;;;;;;4960713;28;20049;-78
2022/09/02 09:01:04;;;;;;;1.50;0.88;;;24.30;64.30;;;;;;4976925;28;20081;-78
2022/09/02 09:03:42;;;;;;;1.45;0.70;;;24.60;65.50;;;;;;4960335;28;20054;-78
2022/09/02 09:06:31;;;;;;;0.93;0.70;;;24.90;63.00;;;;;;4970230;28;20039;-78
2022/09/02 09:09:14;;;;;;;1.50;0.80;;;25.00;61.20;;;;;;4981620;28;20049;-78
2022/09/02 09:12:00;;;;;;;0.80;0.80;;;25.20;58.40;;;;;;4977804;28;20034;-76
2022/09/02 09:14:55;;;;;;;0.65;0.65;;;25.20;60.60;;;;;;4967461;28;20504;-78
2022/09/02 09:17:28;;;;;;;0.88;0.80;;;25.40;59.50;;;;;;4969445;28;20097;-78
2022/09/02 09:19:59;;;;;;;1.60;0.80;;;25.60;56.90;;;;;;4977512;28;20039;-78
2022/09/02 09:22:30;;;;;;;1.70;1.00;;;25.50;58.10;;;;;;4959786;28;20120;-76
2022/09/02 09:24:56;;;;;;;2.05;0.70;;;25.60;58.80;;;;;;4969531;28;20125;-76
2022/09/02 09:27:22;;;;;;;1.05;0.73;;;25.70;57.90;;;;;;4982640;28;20137;-76
2022/09/02 09:29:49;;;;;;;3.65;0.68;;;25.90;58.20;;;;;;4988611;28;20042;-76
2022/09/02 09:32:40;;;;;;;1.90;0.77;;;26.00;58.10;;;;;;4997062;28;20034;-76
2022/09/02 09:35:06;;;;;;;1.13;0.80;;;26.30;54.20;;;;;;4996660;28;20038;-76
2022/09/02 09:37:39;;;;;;;0.93;0.80;;;26.50;57.20;;;;;;4985126;28;20037;-76
2022/09/02 09:40:20;;;;;;;0.90;0.50;;;26.80;56.60;;;;;;4990013;28;20060;-76
2022/09/02 09:42:47;;;;;;;0.60;0.57;;;27.10;54.10;;;;;;4993674;28;20881;-76
2022/09/02 09:45:26;;;;;;;1.55;0.70;;;27.40;54.30;;;;;;4976728;28;20045;-74
2022/09/02 09:48:07;;;;;;;0.82;0.55;;;27.30;53.80;;;;;;4973124;28;20053;-75
2022/09/02 09:50:32;;;;;;;0.70;0.70;;;27.50;53.30;;;;;;4984690;28;20058;-75
2022/09/02 09:53:19;;;;;;;0.77;0.68;;;27.50;50.90;;;;;;4974813;28;20421;-75
2022/09/02 09:56:05;;;;;;;1.42;0.55;;;27.30;50.10;;;;;;4976487;28;20042;-76
2022/09/02 09:58:34;;;;;;;1.38;0.70;;;27.00;50.30;;;;;;4980667;28;20121;-76
2022/09/02 10:01:20;;;;;;;0.73;0.60;;;26.90;50.70;;;;;;4995403;28;20092;-74
2022/09/02 10:04:09;;;;;;;1.60;0.50;;;27.00;49.90;;;;;;4987042;28;20042;-75
2022/09/02 10:06:34;;;;;;;0.60;0.45;;;27.00;49.40;;;;;;4946981;28;20133;-75
2022/09/02 10:09:14;;;;;;;0.70;0.40;;;27.00;50.30;;;;;;4948655;28;20129;-74
2022/09/02 10:11:54;;;;;;;0.93;0.47;;;27.20;48.90;;;;;;4989950;28;20069;-74
2022/09/02 10:14:20;;;;;;;0.75;0.50;;;27.40;49.70;;;;;;4991547;28;20507;-75
2022/09/02 10:16:59;;;;;;;0.50;0.50;;;27.60;48.30;;;;;;4996179;28;20033;-75
2022/09/02 10:19:33;;;;;;;0.55;0.43;;;27.50;48.60;;;;;;4976567;28;20042;-75
2022/09/02 10:22:17;;;;;;;1.55;0.73;;;27.40;47.70;;;;;;4974346;28;20050;-74
2022/09/02 10:25:06;;;;;;;2.13;0.63;;;27.40;47.40;;;;;;4941093;28;20521;-75
2022/09/02 10:27:39;;;;;;;0.80;0.50;;;27.40;47.60;;;;;;4943013;28;20046;-74
2022/09/02 10:30:13;;;;;;;0.95;0.63;;;27.40;48.10;;;;;;4958374;28;20126;-74
2022/09/02 10:32:53;;;;;;;0.50;0.50;;;27.60;49.00;;;;;;4959204;28;20417;-74
2022/09/02 10:35:41;;;;;;;0.68;0.55;;;28.00;49.30;;;;;;4960295;28;20453;-75
2022/09/02 10:38:30;;;;;;;0.55;0.47;;;28.40;45.50;;;;;;4974342;28;20078;-73
2022/09/02 10:41:25;;;;;;;0.43;0.40;;;28.20;46.00;;;;;;4989423;28;20089;-75
2022/09/02 10:43:59;;;;;;;6.38;1.00;;;28.30;46.60;;;;;;4970777;28;20065;-74
2022/09/02 10:46:25;;;;;;;0.70;0.57;;;28.40;44.80;;;;;;4974301;28;20046;-74
2022/09/02 10:49:12;;;;;;;0.85;0.60;;;28.40;46.20;;;;;;4967176;28;20053;-75
2022/09/02 10:51:45;;;;;;;0.50;0.40;;;28.50;44.40;;;;;;4978382;28;20433;-75
2022/09/02 10:54:26;;;;;;;0.47;0.47;;;28.30;45.20;;;;;;4981496;28;20045;-76
2022/09/02 10:57:04;;;;;;;0.77;0.60;;;28.30;46.30;;;;;;4973745;28;20125;-79
2022/09/02 10:59:47;;;;;;;1.38;0.60;;;28.70;43.30;;;;;;4975048;28;20053;-75
2022/09/02 11:02:29;;;;;;;1.65;1.30;;;28.40;45.20;;;;;;4972361;28;20075;-76
2022/09/02 11:05:07;;;;;;;0.77;0.57;;;28.30;45.70;;;;;;4960566;28;20062;-77
2022/09/02 11:07:51;;;;;;;0.90;0.63;;;28.60;45.70;;;;;;4968663;28;20129;-75
2022/09/02 11:10:23;;;;;;;0.68;0.60;;;28.80;44.80;;;;;;4973113;28;20464;-76
2022/09/02 11:13:10;;;;;;;0.88;0.52;;;28.80;43.50;;;;;;4974594;28;20060;-76
2022/09/02 11:15:36;;;;;;;0.80;0.50;;;28.40;45.10;;;;;;4973476;28;20035;-75
2022/09/02 11:18:12;;;;;;;0.70;0.70;;;28.60;45.30;;;;;;4971535;28;20061;-75
2022/09/02 11:20:47;;;;;;;0.80;0.68;;;29.00;43.50;;;;;;4971356;28;20462;-75
2022/09/02 11:23:48;;;;;;;0.80;0.50;;;29.10;42.70;;;;;;4993222;28;20034;-76
2022/09/02 11:26:28;;;;;;;0.95;0.75;;;28.80;44.20;;;;;;4963738;28;20043;-76
2022/09/02 11:29:30;;;;;;;1.02;0.63;;;28.80;43.70;;;;;;4952737;28;20096;-75
2022/09/02 11:32:36;;;;;;;1.70;0.70;;;28.80;43.20;;;;;;4973021;28;20517;-75
2022/09/02 11:35:07;;;;;;;0.60;0.52;;;28.40;43.80;;;;;;4972785;28;20061;-75
2022/09/02 11:37:55;;;;;;;1.30;0.68;;;28.40;43.50;;;;;;4950213;28;20432;-75
2022/09/02 11:40:42;;;;;;;1.17;0.63;;;28.30;43.50;;;;;;4952667;28;20045;-75
2022/09/02 11:43:33;;;;;;;1.38;0.70;;;28.00;43.90;;;;;;4971584;28;20125;-74
2022/09/02 11:46:26;;;;;;;1.45;0.70;;;27.80;44.20;;;;;;4954821;28;20073;-75
2022/09/02 11:49:10;;;;;;;1.27;0.70;;;27.70;44.90;;;;;;4958248;28;20200;-76
2022/09/02 11:52:03;;;;;;;0.90;0.60;;;27.60;44.70;;;;;;4970786;28;20046;-75
2022/09/02 11:54:40;;;;;;;0.70;0.45;;;27.80;45.30;;;;;;4930512;28;20464;-76
2022/09/02 11:57:10;;;;;;;0.80;0.60;;;27.90;44.90;;;;;;4962018;28;20441;-76
2022/09/02 11:59:50;;;;;;;2.00;0.77;;;28.30;45.40;;;;;;4972546;28;20046;-75
2022/09/02 12:02:45;;;;;;;1.50;0.60;;;28.60;43.30;;;;;;4970647;28;20038;-76
2022/09/02 12:05:30;;;;;;;0.63;0.60;;;28.80;43.70;;;;;;4956196;28;20042;-75
2022/09/02 12:07:59;;;;;;;0.50;0.50;;;29.20;42.40;;;;;;4972974;28;20125;-73
2022/09/02 12:10:38;;;;;;;0.98;0.68;;;29.20;41.90;;;;;;4956284;28;20046;-73
2022/09/02 12:13:06;;;;;;;1.30;0.77;;;29.00;41.40;;;;;;4969653;28;20515;-73
2022/09/02 12:15:34;;;;;;;0.75;0.60;;;28.90;42.40;;;;;;4970648;28;20042;-73
2022/09/02 12:18:11;;;;;;;0.60;0.55;;;29.00;43.00;;;;;;4971339;28;20069;-73
2022/09/02 12:20:40;;;;;;;2.38;0.63;;;29.20;42.10;;;;;;4983659;28;20053;-75
2022/09/02 12:23:43;;;;;;;1.48;0.70;;;29.40;43.20;;;;;;4973404;28;20067;-75
2022/09/02 12:26:09;;;;;;;;;;;29.80;43.00;;;;;;4964370;28;20045;-75
2022/09/02 12:28:34;;;;;;;1.30;0.70;;;30.20;42.00;;;;;;4981296;28;19918;-74
2022/09/02 12:31:01;;;;;;;0.85;0.80;;;30.40;40.70;;;;;;4990948;28;20041;-75
2022/09/02 12:33:40;;;;;;;1.13;0.70;;;30.40;40.70;;;;;;4974745;28;20098;-74
2022/09/02 12:36:09;;;;;;;0.70;0.50;;;30.20;40.10;;;;;;4975715;28;20057;-75
2022/09/02 12:38:41;;;;;;;1.10;0.63;;;30.00;40.70;;;;;;4987857;28;20045;-75
2022/09/02 12:41:26;;;;;;;0.75;0.70;;;30.00;41.30;;;;;;4994680;28;20077;-75
2022/09/02 12:43:52;;;;;;;1.67;0.60;;;30.20;42.30;;;;;;4978392;28;20042;-74
2022/09/02 12:46:35;;;;;;;0.85;0.60;;;30.30;40.30;;;;;;4978258;28;20449;-75
2022/09/02 12:49:23;;;;;;;1.42;0.80;;;30.30;41.40;;;;;;4961627;28;20108;-75
2022/09/02 12:51:56;;;;;;;0.80;0.70;;;30.20;42.00;;;;;;4978286;28;20129;-75
2022/09/02 12:54:49;;;;;;;0.93;0.90;;;30.20;41.90;;;;;;4977978;28;20045;-74
2022/09/02 12:57:16;;;;;;;0.88;0.80;;;30.40;39.70;;;;;;4977876;28;20039;-75
2022/09/02 12:59:44;;;;;;;0.90;0.70;;;30.20;40.40;;;;;;4978031;28;20042;-75
2022/09/02 13:02:33;;;;;;;0.80;0.68;;;30.00;41.40;;;;;;4977891;28;20042;-75
2022/09/02 13:05:27;;;;;;;0.90;0.70;;;29.90;41.90;;;;;;4977732;28;20056;-75
2022/09/02 13:08:07;;;;;;;2.22;0.80;;;29.70;40.00;;;;;;4977664;28;20048;-74
2022/09/02 13:10:55;;;;;;;0.98;0.70;;;29.20;39.90;;;;;;4977688;28;20038;-75